Departure
Concord-Padgett Regional Airport
Concord, US
cloud Weather
- Wind
- 0° / 0 kt
- Visibility
- 10 SM
- Ceiling
- CLR
- Temp / Dew
- 25°C / 21°C
- Altimeter
- 30.09 inHg
Obs: 2026-09-02T01:55:00.000Z
Raw METAR
METAR KJQF 020155Z 00000KT 10SM CLR 25/21 A3009
route Route
Departure
Concord, US
Obs: 2026-09-02T01:55:00.000Z
METAR KJQF 020155Z 00000KT 10SM CLR 25/21 A3009
Arrival
Islip, US
Obs: 2026-09-02T01:56:00.000Z
METAR KISP 020156Z 08008KT 10SM OVC009 19/18 A3002 RMK AO2 SLP167 T01940178 TAF KISP 020237Z 0203/0224 06008KT P6SM OVC008 FM021200 07008KT P6SM FEW008 BKN015 FM022000 10010KT P6SM SCT025 BKN040
| Airline | Flights shown |
|---|---|
| Mali Air Express | 50 |
| Date | Flight | Aircraft | Takeoff | Landing | Duration | Arr Δ |
|---|---|---|---|---|---|---|
| 2026-07-26 | VXP1183 | AAE7B3 | Jul 26, 14:30 UTC | Jul 26, 16:05 UTC | 1h 35m | - |
| 2026-07-26 | VXP1182 | AAE7B3 | Jul 26, 11:50 UTC | Jul 26, 13:15 UTC | 1h 25m | - |
| 2026-07-24 | VXP1180 | AAE7B3 | Jul 24, 16:10 UTC | Jul 24, 17:35 UTC | 1h 25m | - |
| 2026-07-23 | VXP1183 | AAE7B3 | Jul 23, 14:25 UTC | Jul 23, 16:05 UTC | 1h 40m | - |
| 2026-07-20 | VXP1180 | AAE7B3 | Jul 20, 16:25 UTC | Jul 20, 17:45 UTC | 1h 20m | - |
| 2026-07-19 | VXP1183 | AAE7B3 | Jul 19, 14:25 UTC | Jul 19, 16:00 UTC | 1h 35m | - |
| 2026-07-17 | VXP1180 | AAE7B3 | Jul 17, 16:15 UTC | Jul 17, 17:35 UTC | 1h 20m | - |
| 2026-07-16 | VXP1183 | AAE7B3 | Jul 16, 14:20 UTC | Jul 16, 15:55 UTC | 1h 35m | - |
| 2026-07-13 | VXP1180 | AAE7B3 | Jul 13, 16:05 UTC | Jul 13, 17:25 UTC | 1h 20m | - |
| 2026-07-12 | VXP1183 | AAE7B3 | Jul 12, 14:20 UTC | Jul 12, 15:45 UTC | 1h 25m | - |
| 2026-07-10 | VXP1180 | AAE7B3 | Jul 10, 16:25 UTC | Jul 10, 17:55 UTC | 1h 30m | - |
| 2026-07-09 | VXP1183 | AAE7B3 | Jul 9, 14:50 UTC | Jul 9, 16:30 UTC | 1h 40m | - |
| 2026-07-06 | VXP1180 | AAEB6A | Jul 6, 16:15 UTC | Jul 6, 17:50 UTC | 1h 35m | - |
| 2026-07-05 | VXP1183 | AAEB6A | Jul 5, 14:15 UTC | Jul 5, 15:45 UTC | 1h 30m | - |
| 2026-07-03 | VXP1180 | AAEB6A | Jul 3, 16:00 UTC | Jul 3, 17:20 UTC | 1h 20m | - |
| 2026-07-02 | VXP1183 | AAEB6A | Jul 2, 14:20 UTC | Jul 2, 15:55 UTC | 1h 35m | - |
| 2026-06-29 | VXP1180 | AAEB6A | Jun 29, 16:04 UTC | Jun 29, 17:24 UTC | 1h 20m | - |
| 2026-06-28 | VXP1183 | AAEB6A | Jun 28, 14:14 UTC | Jun 28, 15:44 UTC | 1h 30m | - |
| 2026-06-26 | VXP1180 | AAEB6A | Jun 26, 16:05 UTC | Jun 26, 17:25 UTC | 1h 20m | - |
| 2026-06-25 | VXP1183 | AAEB6A | Jun 25, 14:14 UTC | Jun 25, 15:54 UTC | 1h 40m | - |
| 2026-06-22 | VXP1180 | AAEB6A | Jun 22, 16:10 UTC | Jun 22, 17:29 UTC | 1h 20m | - |
| 2026-06-21 | VXP1183 | AAEB6A | Jun 21, 14:19 UTC | Jun 21, 15:59 UTC | 1h 40m | - |
| 2026-06-19 | VXP1180 | AAEB6A | Jun 19, 16:14 UTC | Jun 19, 17:29 UTC | 1h 15m | - |
| 2026-06-18 | VXP1183 | AAEB6A | Jun 18, 14:20 UTC | Jun 18, 15:55 UTC | 1h 35m | - |
| 2026-06-15 | VXP1180 | AAEB6A | Jun 15, 22:05 UTC | Jun 15, 23:19 UTC | 1h 15m | - |
| 2026-06-15 | VXP1183 | AB0EF9 | Jun 15, 03:30 UTC | Jun 15, 05:04 UTC | 1h 35m | - |
| 2026-06-12 | VXP1180 | AB017B | Jun 12, 22:25 UTC | Jun 12, 23:45 UTC | 1h 20m | - |
| 2026-06-12 | VXP1183 | AB017B | Jun 12, 01:40 UTC | Jun 12, 03:10 UTC | 1h 30m | - |
| 2026-06-11 | VXP1182 | AB017B | Jun 11, 23:10 UTC | Jun 12, 00:35 UTC | 1h 26m | - |
| 2026-06-08 | VXP1180 | AAEB6A | Jun 8, 22:05 UTC | Jun 8, 23:30 UTC | 1h 25m | - |
| 2026-06-08 | VXP1183 | AAEF21 | Jun 8, 01:35 UTC | Jun 8, 03:00 UTC | 1h 25m | - |
| 2026-06-07 | VXP1182 | AAEF21 | Jun 7, 23:20 UTC | Jun 8, 00:45 UTC | 1h 25m | - |
| 2026-06-05 | VXP1180 | AAEB6A | Jun 5, 22:10 UTC | Jun 5, 23:30 UTC | 1h 20m | - |
| 2026-06-05 | VXP1183 | AB0B42 | Jun 5, 03:20 UTC | Jun 5, 04:40 UTC | 1h 20m | - |
| 2026-06-05 | VXP1182 | AB0B42 | Jun 5, 00:55 UTC | Jun 5, 02:25 UTC | 1h 30m | - |
| 2026-06-01 | VXP1180 | AAEB6A | Jun 1, 22:00 UTC | Jun 1, 23:25 UTC | 1h 25m | - |
| 2026-06-01 | VXP1183 | AB0B42 | Jun 1, 01:40 UTC | Jun 1, 03:05 UTC | 1h 25m | - |
| 2026-05-31 | VXP1182 | AB0B42 | May 31, 23:20 UTC | Jun 1, 00:45 UTC | 1h 25m | - |
| 2026-05-29 | VXP1180 | AB1DD5 | May 29, 22:05 UTC | May 29, 23:25 UTC | 1h 20m | - |
| 2026-05-29 | VXP1183 | AB1DD5 | May 29, 01:45 UTC | May 29, 03:15 UTC | 1h 30m | - |
| 2026-05-28 | VXP1182 | AB1DD5 | May 28, 23:25 UTC | May 29, 00:45 UTC | 1h 20m | - |
| 2026-05-25 | VXP1180 | AAEB6A | May 25, 22:05 UTC | May 25, 23:19 UTC | 1h 15m | - |
| 2026-05-25 | VXP1183 | AB1DD5 | May 25, 04:05 UTC | May 25, 05:35 UTC | 1h 30m | - |
| 2026-05-25 | VXP1182 | AB1DD5 | May 25, 01:55 UTC | May 25, 03:05 UTC | 1h 10m | - |
| 2026-05-22 | VXP1180 | AAEB6A | May 22, 22:00 UTC | May 22, 23:15 UTC | 1h 15m | - |
| 2026-05-22 | VXP1183 | AAEB6A | May 22, 01:45 UTC | May 22, 03:25 UTC | 1h 40m | - |
| 2026-05-21 | VXP1182 | AAEB6A | May 21, 23:15 UTC | May 22, 00:35 UTC | 1h 20m | - |
| 2026-05-18 | VXP1180 | AAFDC4 | May 18, 22:05 UTC | May 18, 23:25 UTC | 1h 20m | - |
| 2026-05-18 | VXP1183 | AAFDC4 | May 18, 01:35 UTC | May 18, 03:10 UTC | 1h 35m | - |
| 2026-05-17 | VXP1182 | AAFDC4 | May 17, 23:15 UTC | May 18, 00:40 UTC | 1h 25m | - |